sensor_id;sensor_type;location;lat;lon;timestamp;pressure;altitude;pressure_sealevel;temperature;humidity
34197;BME280;36594;45.192;5.722;2022-09-13T00:02:35;98896.95;;;28.95;36.12
34197;BME280;36594;45.192;5.722;2022-09-13T00:05:24;98893.66;;;28.93;36.12
34197;BME280;36594;45.192;5.722;2022-09-13T00:08:13;98891.14;;;28.94;36.17
34197;BME280;36594;45.192;5.722;2022-09-13T00:11:01;98890.61;;;28.92;36.18
34197;BME280;36594;45.192;5.722;2022-09-13T00:13:51;98888.39;;;28.92;36.19
34197;BME280;36594;45.192;5.722;2022-09-13T00:16:40;98883.42;;;28.94;36.12
34197;BME280;36594;45.192;5.722;2022-09-13T00:19:28;98885.36;;;28.93;36.12
34197;BME280;36594;45.192;5.722;2022-09-13T00:22:16;98869.62;;;28.91;36.15
34197;BME280;36594;45.192;5.722;2022-09-13T00:25:05;98871.80;;;28.92;36.14
34197;BME280;36594;45.192;5.722;2022-09-13T00:27:54;98885.36;;;28.93;36.13
34197;BME280;36594;45.192;5.722;2022-09-13T00:30:43;98882.84;;;28.94;36.11
34197;BME280;36594;45.192;5.722;2022-09-13T00:33:31;98877.61;;;28.93;36.10
34197;BME280;36594;45.192;5.722;2022-09-13T00:36:20;98877.59;;;28.95;36.09
34197;BME280;36594;45.192;5.722;2022-09-13T00:39:11;98871.78;;;28.94;36.10
34197;BME280;36594;45.192;5.722;2022-09-13T00:42:00;98872.08;;;28.93;36.09
34197;BME280;36594;45.192;5.722;2022-09-13T00:45:13;98861.55;;;28.95;36.08
34197;BME280;36594;45.192;5.722;2022-09-13T00:47:59;98867.39;;;28.93;36.08
34197;BME280;36594;45.192;5.722;2022-09-13T00:50:50;98864.11;;;28.89;36.15
34197;BME280;36594;45.192;5.722;2022-09-13T00:53:43;98863.27;;;28.91;36.13
34197;BME280;36594;45.192;5.722;2022-09-13T00:56:34;98862.73;;;28.89;36.15
34197;BME280;36594;45.192;5.722;2022-09-13T00:59:27;98858.59;;;28.89;36.16
34197;BME280;36594;45.192;5.722;2022-09-13T01:02:15;98859.41;;;28.89;36.15
34197;BME280;36594;45.192;5.722;2022-09-13T01:05:03;98862.98;;;28.90;36.15
34197;BME280;36594;45.192;5.722;2022-09-13T01:07:53;98863.28;;;28.88;36.17
34197;BME280;36594;45.192;5.722;2022-09-13T01:10:43;98856.92;;;28.88;36.17
34197;BME280;36594;45.192;5.722;2022-09-13T01:13:33;98856.92;;;28.88;36.20
34197;BME280;36594;45.192;5.722;2022-09-13T01:16:23;98855.82;;;28.89;36.15
34197;BME280;36594;45.192;5.722;2022-09-13T01:19:12;98861.92;;;28.86;36.22
34197;BME280;36594;45.192;5.722;2022-09-13T01:34:59;98840.48;;;28.75;36.44
34197;BME280;36594;45.192;5.722;2022-09-13T01:43:57;98845.13;;;28.80;36.40
34197;BME280;36594;45.192;5.722;2022-09-13T01:46:55;98843.22;;;28.78;36.45
34197;BME280;36594;45.192;5.722;2022-09-13T01:49:45;98841.83;;;28.78;36.45
34197;BME280;36594;45.192;5.722;2022-09-13T01:55:45;98832.69;;;28.80;36.39
34197;BME280;36594;45.192;5.722;2022-09-13T01:58:43;98823.81;;;28.80;36.40
34197;BME280;36594;45.192;5.722;2022-09-13T02:01:37;98830.20;;;28.78;36.42
34197;BME280;36594;45.192;5.722;2022-09-13T02:04:26;98832.16;;;28.78;36.46
34197;BME280;36594;45.192;5.722;2022-09-13T02:07:20;98832.96;;;28.78;36.48
34197;BME280;36594;45.192;5.722;2022-09-13T02:10:22;98834.07;;;28.80;36.44
34197;BME280;36594;45.192;5.722;2022-09-13T02:13:13;98829.64;;;28.79;36.50
34197;BME280;36594;45.192;5.722;2022-09-13T02:16:08;98833.23;;;28.79;36.48
34197;BME280;36594;45.192;5.722;2022-09-13T02:18:58;98828.55;;;28.80;36.46
34197;BME280;36594;45.192;5.722;2022-09-13T02:21:51;98830.48;;;28.79;36.47
34197;BME280;36594;45.192;5.722;2022-09-13T02:24:43;98825.50;;;28.79;36.48
34197;BME280;36594;45.192;5.722;2022-09-13T02:27:33;98836.55;;;28.79;36.50
34197;BME280;36594;45.192;5.722;2022-09-13T02:30:22;98837.09;;;28.81;36.49
34197;BME280;36594;45.192;5.722;2022-09-13T02:33:19;98832.94;;;28.81;36.48
34197;BME280;36594;45.192;5.722;2022-09-13T02:36:07;98830.48;;;28.79;36.44
34197;BME280;36594;45.192;5.722;2022-09-13T02:39:02;98829.09;;;28.79;36.47
34197;BME280;36594;45.192;5.722;2022-09-13T02:42:04;98824.64;;;28.81;36.44
34197;BME280;36594;45.192;5.722;2022-09-13T02:44:54;98827.16;;;28.80;36.48
34197;BME280;36594;45.192;5.722;2022-09-13T02:47:56;98828.55;;;28.80;36.49
34197;BME280;36594;45.192;5.722;2022-09-13T02:51:03;98827.41;;;28.81;36.50
34197;BME280;36594;45.192;5.722;2022-09-13T02:54:00;98826.33;;;28.79;36.51
34197;BME280;36594;45.192;5.722;2022-09-13T02:56:55;98820.52;;;28.78;36.50
34197;BME280;36594;45.192;5.722;2022-09-13T02:59:42;98824.40;;;28.80;36.50
34197;BME280;36594;45.192;5.722;2022-09-13T03:02:33;98823.03;;;28.77;36.54
34197;BME280;36594;45.192;5.722;2022-09-13T03:05:23;98816.91;;;28.80;36.49
34197;BME280;36594;45.192;5.722;2022-09-13T03:08:13;98817.18;;;28.81;36.49
34197;BME280;36594;45.192;5.722;2022-09-13T03:14:23;98807.73;;;28.85;36.45
34197;BME280;36594;45.192;5.722;2022-09-13T03:26:14;98793.96;;;28.82;36.48
34197;BME280;36594;45.192;5.722;2022-09-13T03:29:02;98797.53;;;28.83;36.45
34197;BME280;36594;45.192;5.722;2022-09-13T03:35:23;98789.84;;;28.80;36.52
34197;BME280;36594;45.192;5.722;2022-09-13T03:38:18;98787.60;;;28.82;36.48
34197;BME280;36594;45.192;5.722;2022-09-13T03:41:12;98798.41;;;28.78;36.55
34197;BME280;36594;45.192;5.722;2022-09-13T03:44:02;98795.38;;;28.80;36.53
34197;BME280;36594;45.192;5.722;2022-09-13T03:46:54;98809.98;;;28.80;36.53
34197;BME280;36594;45.192;5.722;2022-09-13T03:49:43;98808.89;;;28.81;36.49
34197;BME280;36594;45.192;5.722;2022-09-13T03:52:33;98806.67;;;28.81;36.51
34197;BME280;36594;45.192;5.722;2022-09-13T03:55:22;98813.26;;;28.85;36.46
34197;BME280;36594;45.192;5.722;2022-09-13T03:58:17;98810.50;;;28.85;36.46
34197;BME280;36594;45.192;5.722;2022-09-13T04:01:07;98812.16;;;28.86;36.43
34197;BME280;36594;45.192;5.722;2022-09-13T04:03:56;98811.33;;;28.85;36.47
34197;BME280;36594;45.192;5.722;2022-09-13T04:06:45;98809.70;;;28.84;36.44
34197;BME280;36594;45.192;5.722;2022-09-13T04:09:33;98802.73;;;28.89;36.37
34197;BME280;36594;45.192;5.722;2022-09-13T04:12:21;98807.96;;;28.91;36.36
34197;BME280;36594;45.192;5.722;2022-09-13T04:15:10;98806.88;;;28.89;36.40
34197;BME280;36594;45.192;5.722;2022-09-13T04:17:59;98808.81;;;28.89;36.41
34197;BME280;36594;45.192;5.722;2022-09-13T04:21:01;98803.84;;;28.88;36.38
34197;BME280;36594;45.192;5.722;2022-09-13T04:23:48;98785.56;;;28.90;36.40
34197;BME280;36594;45.192;5.722;2022-09-13T04:26:35;98769.30;;;28.86;36.43
34197;BME280;36594;45.192;5.722;2022-09-13T04:29:25;98754.93;;;28.86;36.44
34197;BME280;36594;45.192;5.722;2022-09-13T04:32:14;98748.84;;;28.87;36.42
34197;BME280;36594;45.192;5.722;2022-09-13T04:35:02;98746.33;;;28.88;36.45
34197;BME280;36594;45.192;5.722;2022-09-13T04:37:53;98743.56;;;28.88;36.43
34197;BME280;36594;45.192;5.722;2022-09-13T04:40:50;98725.07;;;28.86;36.47
34197;BME280;36594;45.192;5.722;2022-09-13T04:43:30;98728.11;;;28.87;36.45
34197;BME280;36594;45.192;5.722;2022-09-13T04:46:18;98739.17;;;28.87;36.46
34197;BME280;36594;45.192;5.722;2022-09-13T04:49:08;98748.27;;;28.87;36.43
34197;BME280;36594;45.192;5.722;2022-09-13T04:51:57;98748.02;;;28.86;36.46
34197;BME280;36594;45.192;5.722;2022-09-13T04:54:45;98742.77;;;28.85;36.46
34197;BME280;36594;45.192;5.722;2022-09-13T04:57:34;98744.42;;;28.86;36.46
34197;BME280;36594;45.192;5.722;2022-09-13T05:00:23;98747.47;;;28.87;36.42
34197;BME280;36594;45.192;5.722;2022-09-13T05:03:12;98751.03;;;28.87;36.44
34197;BME280;36594;45.192;5.722;2022-09-13T05:06:05;98754.62;;;28.88;36.44
34197;BME280;36594;45.192;5.722;2022-09-13T05:08:55;98760.16;;;28.88;36.41
34197;BME280;36594;45.192;5.722;2022-09-13T05:11:43;98758.25;;;28.86;36.44
34197;BME280;36594;45.192;5.722;2022-09-13T05:14:32;98765.16;;;28.86;36.42
34197;BME280;36594;45.192;5.722;2022-09-13T05:17:21;98775.91;;;28.87;36.42
34197;BME280;36594;45.192;5.722;2022-09-13T05:20:10;98773.78;;;28.82;36.56
34197;BME280;36594;45.192;5.722;2022-09-13T05:23:00;98778.76;;;28.82;36.65
34197;BME280;36594;45.192;5.722;2022-09-13T05:26:00;98783.38;;;28.89;37.26
34197;BME280;36594;45.192;5.722;2022-09-13T05:28:49;98783.38;;;28.89;37.26
34197;BME280;36594;45.192;5.722;2022-09-13T05:31:39;98784.98;;;28.93;37.22
34197;BME280;36594;45.192;5.722;2022-09-13T05:34:28;98771.16;;;28.93;37.31
34197;BME280;36594;45.192;5.722;2022-09-13T05:37:18;98763.72;;;28.91;37.12
34197;BME280;36594;45.192;5.722;2022-09-13T05:40:11;98759.67;;;28.81;36.64
34197;BME280;36594;45.192;5.722;2022-09-13T05:42:57;98760.03;;;28.74;36.45
34197;BME280;36594;45.192;5.722;2022-09-13T05:45:45;98757.34;;;28.66;36.41
34197;BME280;36594;45.192;5.722;2022-09-13T05:48:34;98749.67;;;28.58;36.24
34197;BME280;36594;45.192;5.722;2022-09-13T05:51:23;98743.91;;;28.52;36.23
34197;BME280;36594;45.192;5.722;2022-09-13T05:54:13;98761.91;;;28.47;36.24
34197;BME280;36594;45.192;5.722;2022-09-13T05:57:01;98772.21;;;28.42;36.34
34197;BME280;36594;45.192;5.722;2022-09-13T05:59:50;98749.00;;;28.40;36.30
34197;BME280;36594;45.192;5.722;2022-09-13T06:02:38;98762.59;;;28.37;36.33
34197;BME280;36594;45.192;5.722;2022-09-13T06:05:30;98762.89;;;28.35;36.36
34197;BME280;36594;45.192;5.722;2022-09-13T06:08:18;98765.67;;;28.33;36.45
34197;BME280;36594;45.192;5.722;2022-09-13T06:11:08;98761.24;;;28.32;36.53
34197;BME280;36594;45.192;5.722;2022-09-13T06:13:57;98770.16;;;28.26;36.66
34197;BME280;36594;45.192;5.722;2022-09-13T06:16:46;98766.58;;;28.23;36.85
34197;BME280;36594;45.192;5.722;2022-09-13T06:19:34;98762.36;;;28.33;37.51
34197;BME280;36594;45.192;5.722;2022-09-13T06:22:24;98770.95;;;28.58;38.51
34197;BME280;36594;45.192;5.722;2022-09-13T06:25:14;98766.11;;;28.73;38.72
34197;BME280;36594;45.192;5.722;2022-09-13T06:28:03;98758.60;;;28.79;38.78
34197;BME280;36594;45.192;5.722;2022-09-13T06:30:51;98761.59;;;28.83;38.47
34197;BME280;36594;45.192;5.722;2022-09-13T06:33:41;98755.50;;;28.83;38.08
34197;BME280;36594;45.192;5.722;2022-09-13T06:36:30;98756.86;;;28.86;37.90
34197;BME280;36594;45.192;5.722;2022-09-13T06:39:18;98756.31;;;28.86;37.68
34197;BME280;36594;45.192;5.722;2022-09-13T06:42:07;98764.33;;;28.85;37.54
34197;BME280;36594;45.192;5.722;2022-09-13T06:44:57;98769.28;;;28.88;37.65
34197;BME280;36594;45.192;5.722;2022-09-13T06:47:45;98765.11;;;28.91;37.54
34197;BME280;36594;45.192;5.722;2022-09-13T06:50:39;98762.31;;;28.93;37.56
34197;BME280;36594;45.192;5.722;2022-09-13T06:53:27;98751.94;;;29.04;38.05
34197;BME280;36594;45.192;5.722;2022-09-13T06:56:30;98753.80;;;29.11;38.44
34197;BME280;36594;45.192;5.722;2022-09-13T06:59:20;98753.27;;;29.09;38.71
34197;BME280;36594;45.192;5.722;2022-09-13T07:02:10;98749.98;;;29.07;38.68
34197;BME280;36594;45.192;5.722;2022-09-13T07:05:00;98749.45;;;29.05;38.61
34197;BME280;36594;45.192;5.722;2022-09-13T07:07:48;98752.47;;;29.06;38.42
34197;BME280;36594;45.192;5.722;2022-09-13T07:10:36;98754.07;;;29.12;38.19
34197;BME280;36594;45.192;5.722;2022-09-13T07:13:24;98762.31;;;29.17;38.05
34197;BME280;36594;45.192;5.722;2022-09-13T07:16:13;98753.19;;;29.16;38.05
34197;BME280;36594;45.192;5.722;2022-09-13T07:19:04;98755.42;;;29.14;38.03
34197;BME280;36594;45.192;5.722;2022-09-13T07:21:54;98757.89;;;29.18;37.95
34197;BME280;36594;45.192;5.722;2022-09-13T07:24:47;98755.12;;;29.16;37.86
34197;BME280;36594;45.192;5.722;2022-09-13T07:27:35;98754.30;;;29.18;37.73
34197;BME280;36594;45.192;5.722;2022-09-13T07:30:24;98754.81;;;29.20;37.64
34197;BME280;36594;45.192;5.722;2022-09-13T07:33:13;98748.20;;;29.18;37.46
34197;BME280;36594;45.192;5.722;2022-09-13T07:36:04;98748.20;;;29.18;37.46
34197;BME280;36594;45.192;5.722;2022-09-13T07:38:53;98757.58;;;29.20;37.40
34197;BME280;36594;45.192;5.722;2022-09-13T07:41:43;98757.89;;;29.18;37.35
34197;BME280;36594;45.192;5.722;2022-09-13T07:44:32;98752.63;;;29.19;37.32
34197;BME280;36594;45.192;5.722;2022-09-13T07:47:21;98752.33;;;29.21;37.24
34197;BME280;36594;45.192;5.722;2022-09-13T07:50:09;98755.67;;;29.18;37.22
34197;BME280;36594;45.192;5.722;2022-09-13T07:52:58;98754.81;;;29.17;37.18
34197;BME280;36594;45.192;5.722;2022-09-13T07:55:47;98747.38;;;29.18;37.21
34197;BME280;36594;45.192;5.722;2022-09-13T07:58:36;98748.20;;;29.18;37.16
34197;BME280;36594;45.192;5.722;2022-09-13T08:01:27;98750.66;;;29.17;37.15
34197;BME280;36594;45.192;5.722;2022-09-13T08:04:22;98748.23;;;29.13;37.19
34197;BME280;36594;45.192;5.722;2022-09-13T08:07:10;98745.99;;;29.18;37.07
34197;BME280;36594;45.192;5.722;2022-09-13T08:09:58;98744.61;;;29.18;37.10
34197;BME280;36594;45.192;5.722;2022-09-13T08:12:49;98753.48;;;29.15;37.10
34197;BME280;36594;45.192;5.722;2022-09-13T08:15:39;98752.66;;;29.14;37.12
34197;BME280;36594;45.192;5.722;2022-09-13T08:18:30;98746.58;;;29.15;37.09
34197;BME280;36594;45.192;5.722;2022-09-13T08:21:18;98755.39;;;29.17;37.07
34197;BME280;36594;45.192;5.722;2022-09-13T08:24:11;98753.73;;;29.18;37.05
34197;BME280;36594;45.192;5.722;2022-09-13T08:26:59;98756.50;;;29.18;37.03
34197;BME280;36594;45.192;5.722;2022-09-13T08:29:49;98750.42;;;29.19;37.03
34197;BME280;36594;45.192;5.722;2022-09-13T08:32:37;98752.88;;;29.20;36.98
34197;BME280;36594;45.192;5.722;2022-09-13T08:35:25;98751.25;;;29.19;36.99
34197;BME280;36594;45.192;5.722;2022-09-13T08:38:14;98754.81;;;29.20;36.95
34197;BME280;36594;45.192;5.722;2022-09-13T08:42:06;98755.09;;;29.21;36.93
34197;BME280;36594;45.192;5.722;2022-09-13T08:44:20;98743.72;;;29.22;36.90
34197;BME280;36594;45.192;5.722;2022-09-13T08:53:18;98747.41;;;29.13;37.03
34197;BME280;36594;45.192;5.722;2022-09-13T08:56:19;98755.73;;;29.10;37.05
34197;BME280;36594;45.192;5.722;2022-09-13T08:59:23;98754.66;;;29.09;37.08
34197;BME280;36594;45.192;5.722;2022-09-13T09:05:24;98758.27;;;29.07;37.11
34197;BME280;36594;45.192;5.722;2022-09-13T09:08:26;98758.30;;;29.04;37.14
34197;BME280;36594;45.192;5.722;2022-09-13T09:11:20;98768.02;;;29.02;37.17
34197;BME280;36594;45.192;5.722;2022-09-13T09:17:10;98753.94;;;29.01;37.17
34197;BME280;36594;45.192;5.722;2022-09-13T09:20:06;98750.03;;;29.02;37.18
34197;BME280;36594;45.192;5.722;2022-09-13T09:22:48;98750.31;;;29.03;37.16
34197;BME280;36594;45.192;5.722;2022-09-13T09:25:38;98746.16;;;29.03;37.13
34197;BME280;36594;45.192;5.722;2022-09-13T09:28:27;98750.31;;;29.03;37.12
34197;BME280;36594;45.192;5.722;2022-09-13T09:38:37;98748.95;;;29.00;37.14
34197;BME280;36594;45.192;5.722;2022-09-13T09:41:33;98743.70;;;28.99;37.16
34197;BME280;36594;45.192;5.722;2022-09-13T09:44:28;98735.19;;;28.95;37.21
34197;BME280;36594;45.192;5.722;2022-09-13T09:47:21;98731.88;;;28.96;37.20
34197;BME280;36594;45.192;5.722;2022-09-13T09:50:14;98729.60;;;29.00;37.10
34197;BME280;36594;45.192;5.722;2022-09-13T09:53:07;98727.91;;;29.02;37.08
34197;BME280;36594;45.192;5.722;2022-09-13T09:59:18;98722.38;;;29.02;37.09
34197;BME280;36594;45.192;5.722;2022-09-13T10:01:59;98722.14;;;29.01;37.12
34197;BME280;36594;45.192;5.722;2022-09-13T10:04:55;98726.28;;;29.01;37.06
34197;BME280;36594;45.192;5.722;2022-09-13T10:07:56;98715.75;;;29.03;37.06
34197;BME280;36594;45.192;5.722;2022-09-13T10:10:51;98728.44;;;29.04;37.10
34197;BME280;36594;45.192;5.722;2022-09-13T10:13:35;98716.61;;;29.01;37.14
34197;BME280;36594;45.192;5.722;2022-09-13T10:16:29;98714.03;;;29.07;37.08
34197;BME280;36594;45.192;5.722;2022-09-13T10:19:25;98711.27;;;29.07;37.01
34197;BME280;36594;45.192;5.722;2022-09-13T10:22:14;98714.03;;;29.07;37.02
34197;BME280;36594;45.192;5.722;2022-09-13T10:28:15;98710.71;;;29.07;36.98
34197;BME280;36594;45.192;5.722;2022-09-13T10:31:11;98716.85;;;29.02;37.06
34197;BME280;36594;45.192;5.722;2022-09-13T10:34:03;98715.99;;;29.04;37.03
34197;BME280;36594;45.192;5.722;2022-09-13T10:37:00;98709.08;;;29.04;37.02
34197;BME280;36594;45.192;5.722;2022-09-13T10:43:14;98708.56;;;29.02;37.11
34197;BME280;36594;45.192;5.722;2022-09-13T10:46:08;98703.83;;;29.05;37.07
34197;BME280;36594;45.192;5.722;2022-09-13T10:48:57;98696.88;;;29.07;37.07
34197;BME280;36594;45.192;5.722;2022-09-13T10:51:48;98697.09;;;29.11;36.92
34197;BME280;36594;45.192;5.722;2022-09-13T10:54:41;98694.08;;;29.10;36.95
34197;BME280;36594;45.192;5.722;2022-09-13T10:57:36;98691.84;;;29.12;37.18
34197;BME280;36594;45.192;5.722;2022-09-13T11:00:54;98688.49;;;29.15;37.25
34197;BME280;36594;45.192;5.722;2022-09-13T11:10:03;98674.13;;;29.34;38.00
34197;BME280;36594;45.192;5.722;2022-09-13T11:13:17;98677.41;;;29.36;37.77
34197;BME280;36594;45.192;5.722;2022-09-13T11:22:46;98677.38;;;29.38;37.32
34197;BME280;36594;45.192;5.722;2022-09-13T11:35:24;98667.66;;;29.41;37.10
34197;BME280;36594;45.192;5.722;2022-09-13T11:38:23;98663.47;;;29.43;37.06
34197;BME280;36594;45.192;5.722;2022-09-13T11:50:54;98646.38;;;29.39;36.99
34197;BME280;36594;45.192;5.722;2022-09-13T11:56:59;98642.75;;;29.41;36.96
34197;BME280;36594;45.192;5.722;2022-09-13T11:59:52;98635.31;;;29.39;36.95
34197;BME280;36594;45.192;5.722;2022-09-13T12:02:44;98628.32;;;29.44;36.96
34197;BME280;36594;45.192;5.722;2022-09-13T12:05:43;98631.36;;;29.45;37.07
34197;BME280;36594;45.192;5.722;2022-09-13T12:08:42;98633.51;;;29.48;37.11
34197;BME280;36594;45.192;5.722;2022-09-13T12:11:33;98627.94;;;29.51;37.06
34197;BME280;36594;45.192;5.722;2022-09-13T12:14:31;98624.58;;;29.54;36.96
34197;BME280;36594;45.192;5.722;2022-09-13T12:17:34;98617.34;;;29.55;36.93
34197;BME280;36594;45.192;5.722;2022-09-13T12:20:33;98615.72;;;29.54;36.89
34197;BME280;36594;45.192;5.722;2022-09-13T12:23:30;98612.16;;;29.51;36.91
34197;BME280;36594;45.192;5.722;2022-09-13T12:29:52;98609.12;;;29.50;36.87
34197;BME280;36594;45.192;5.722;2022-09-13T12:32:37;98601.88;;;29.54;36.78
34197;BME280;36594;45.192;5.722;2022-09-13T12:35:32;98602.12;;;29.55;36.73
34197;BME280;36594;45.192;5.722;2022-09-13T12:38:35;98592.44;;;29.55;36.75
34197;BME280;36594;45.192;5.722;2022-09-13T12:44:26;98582.51;;;29.54;36.68
34197;BME280;36594;45.192;5.722;2022-09-13T13:00:28;98575.67;;;29.49;36.78
34197;BME280;36594;45.192;5.722;2022-09-13T13:03:15;98568.44;;;29.51;36.78
34197;BME280;36594;45.192;5.722;2022-09-13T13:06:25;98561.88;;;29.47;36.80
34197;BME280;36594;45.192;5.722;2022-09-13T13:12:39;98549.77;;;29.59;37.49
34197;BME280;36594;45.192;5.722;2022-09-13T13:19:00;98537.27;;;29.61;37.54
34197;BME280;36594;45.192;5.722;2022-09-13T13:21:39;98536.64;;;29.64;37.42
34197;BME280;36594;45.192;5.722;2022-09-13T13:27:37;98543.32;;;29.63;37.37
34197;BME280;36594;45.192;5.722;2022-09-13T13:33:28;98546.88;;;29.66;37.22
34197;BME280;36594;45.192;5.722;2022-09-13T13:36:25;98533.27;;;29.67;37.17
34197;BME280;36594;45.192;5.722;2022-09-13T13:42:28;98531.58;;;29.69;37.28
34197;BME280;36594;45.192;5.722;2022-09-13T13:45:28;98529.64;;;29.69;37.53
34197;BME280;36594;45.192;5.722;2022-09-13T13:48:14;98533.27;;;29.67;37.47
34197;BME280;36594;45.192;5.722;2022-09-13T13:51:21;98531.89;;;29.67;37.24
34197;BME280;36594;45.192;5.722;2022-09-13T13:54:57;98519.95;;;29.69;37.24
34197;BME280;36594;45.192;5.722;2022-09-13T13:57:24;98516.58;;;29.72;37.38
34197;BME280;36594;45.192;5.722;2022-09-13T14:00:21;98514.27;;;29.79;37.83
34197;BME280;36594;45.192;5.722;2022-09-13T14:03:21;98515.23;;;29.86;38.15
34197;BME280;36594;45.192;5.722;2022-09-13T14:06:19;98517.88;;;29.93;38.85
34197;BME280;36594;45.192;5.722;2022-09-13T14:12:19;98526.42;;;29.94;38.89
34197;BME280;36594;45.192;5.722;2022-09-13T14:15:42;98495.95;;;29.94;39.26
34197;BME280;36594;45.192;5.722;2022-09-13T14:21:24;98502.69;;;30.04;39.16
34197;BME280;36594;45.192;5.722;2022-09-13T14:24:23;98498.80;;;30.05;38.79
34197;BME280;36594;45.192;5.722;2022-09-13T14:27:14;98515.25;;;29.99;38.46
34197;BME280;36594;45.192;5.722;2022-09-13T14:33:15;98506.43;;;29.97;37.93
34197;BME280;36594;45.192;5.722;2022-09-13T14:36:04;98497.88;;;29.96;37.79
34197;BME280;36594;45.192;5.722;2022-09-13T14:38:58;98503.42;;;29.96;37.58
34197;BME280;36594;45.192;5.722;2022-09-13T14:41:48;98521.93;;;29.98;37.53
34197;BME280;36594;45.192;5.722;2022-09-13T14:44:37;98520.45;;;30.03;37.60
34197;BME280;36594;45.192;5.722;2022-09-13T14:47:37;98514.55;;;30.07;37.65
34197;BME280;36594;45.192;5.722;2022-09-13T14:50:29;98497.55;;;30.12;37.61
34197;BME280;36594;45.192;5.722;2022-09-13T14:53:26;98505.09;;;30.08;37.78
34197;BME280;36594;45.192;5.722;2022-09-13T14:57:08;98513.45;;;30.06;37.78
34197;BME280;36594;45.192;5.722;2022-09-13T15:02:26;98486.12;;;30.02;37.24
34197;BME280;36594;45.192;5.722;2022-09-13T15:05:16;98492.02;;;29.98;37.06
34197;BME280;36594;45.192;5.722;2022-09-13T15:11:29;98493.82;;;29.91;36.91
34197;BME280;36594;45.192;5.722;2022-09-13T15:14:33;98491.39;;;29.87;36.89
34197;BME280;36594;45.192;5.722;2022-09-13T15:17:24;98482.33;;;29.84;36.85
34197;BME280;36594;45.192;5.722;2022-09-13T15:20:17;98477.40;;;29.81;36.86
34197;BME280;36594;45.192;5.722;2022-09-13T15:23:12;98473.52;;;29.82;36.77
34197;BME280;36594;45.192;5.722;2022-09-13T15:26:08;98463.55;;;29.81;36.75
34197;BME280;36594;45.192;5.722;2022-09-13T15:28:59;98469.41;;;29.80;36.75
34197;BME280;36594;45.192;5.722;2022-09-13T15:31:48;98467.20;;;29.79;36.79
34197;BME280;36594;45.192;5.722;2022-09-13T15:34:44;98467.20;;;29.79;36.75
34197;BME280;36594;45.192;5.722;2022-09-13T15:37:35;98457.75;;;29.80;36.75
34197;BME280;36594;45.192;5.722;2022-09-13T15:40:28;98461.39;;;29.78;36.74
34197;BME280;36594;45.192;5.722;2022-09-13T15:43:17;98463.09;;;29.77;36.72
34197;BME280;36594;45.192;5.722;2022-09-13T15:46:08;98452.86;;;29.75;36.74
34197;BME280;36594;45.192;5.722;2022-09-13T15:49:02;98444.27;;;29.76;36.73
34197;BME280;36594;45.192;5.722;2022-09-13T15:51:54;98441.05;;;29.69;36.84
34197;BME280;36594;45.192;5.722;2022-09-13T15:54:43;98440.81;;;29.68;36.85
34197;BME280;36594;45.192;5.722;2022-09-13T15:57:33;98441.56;;;29.71;36.87
34197;BME280;36594;45.192;5.722;2022-09-13T16:00:24;98430.25;;;29.70;36.86
34197;BME280;36594;45.192;5.722;2022-09-13T16:03:16;98427.22;;;29.69;36.84
34197;BME280;36594;45.192;5.722;2022-09-13T16:06:05;98438.56;;;29.70;36.86
34197;BME280;36594;45.192;5.722;2022-09-13T16:08:55;98432.00;;;29.66;36.88
34197;BME280;36594;45.192;5.722;2022-09-13T16:11:48;98432.52;;;29.68;36.84
34197;BME280;36594;45.192;5.722;2022-09-13T16:14:37;98426.47;;;29.66;36.87
34197;BME280;36594;45.192;5.722;2022-09-13T16:17:27;98425.64;;;29.66;36.86
34197;BME280;36594;45.192;5.722;2022-09-13T16:20:15;98419.28;;;29.65;36.89
34197;BME280;36594;45.192;5.722;2022-09-13T16:23:04;98410.09;;;29.67;36.86
34197;BME280;36594;45.192;5.722;2022-09-13T16:25:54;98407.14;;;29.64;36.89
34197;BME280;36594;45.192;5.722;2022-09-13T16:28:43;98410.92;;;29.68;36.86
34197;BME280;36594;45.192;5.722;2022-09-13T16:31:32;98407.84;;;29.69;36.79
34197;BME280;36594;45.192;5.722;2022-09-13T16:34:20;98412.09;;;29.64;36.86
34197;BME280;36594;45.192;5.722;2022-09-13T16:37:16;98404.00;;;29.68;36.85
34197;BME280;36594;45.192;5.722;2022-09-13T16:40:07;98409.27;;;29.67;36.86
34197;BME280;36594;45.192;5.722;2022-09-13T16:42:57;98409.91;;;29.64;36.90
34197;BME280;36594;45.192;5.722;2022-09-13T16:45:45;98408.47;;;29.66;36.89
34197;BME280;36594;45.192;5.722;2022-09-13T16:48:36;98402.11;;;29.66;36.86
34197;BME280;36594;45.192;5.722;2022-09-13T16:51:27;98404.88;;;29.66;36.86
34197;BME280;36594;45.192;5.722;2022-09-13T16:54:16;98404.88;;;29.66;36.83
34197;BME280;36594;45.192;5.722;2022-09-13T16:57:05;98396.81;;;29.67;36.90
34197;BME280;36594;45.192;5.722;2022-09-13T16:59:56;98396.36;;;29.62;36.90
34197;BME280;36594;45.192;5.722;2022-09-13T17:02:47;98393.08;;;29.60;37.00
34197;BME280;36594;45.192;5.722;2022-09-13T17:05:36;98387.30;;;29.59;37.19
34197;BME280;36594;45.192;5.722;2022-09-13T17:08:24;98389.61;;;29.68;37.69
34197;BME280;36594;45.192;5.722;2022-09-13T17:11:17;98405.53;;;29.74;38.48
34197;BME280;36594;45.192;5.722;2022-09-13T17:14:08;98405.53;;;29.74;38.48
34197;BME280;36594;45.192;5.722;2022-09-13T17:16:57;98402.30;;;29.69;38.49
34197;BME280;36594;45.192;5.722;2022-09-13T17:19:46;98386.67;;;29.62;38.31
34197;BME280;36594;45.192;5.722;2022-09-13T17:22:34;98403.22;;;29.65;38.22
34197;BME280;36594;45.192;5.722;2022-09-13T17:25:24;98408.25;;;29.63;38.10
34197;BME280;36594;45.192;5.722;2022-09-13T17:28:15;98410.83;;;29.59;37.97
34197;BME280;36594;45.192;5.722;2022-09-13T17:31:03;98404.24;;;29.55;37.90
34197;BME280;36594;45.192;5.722;2022-09-13T17:33:53;98396.21;;;29.56;37.79
34197;BME280;36594;45.192;5.722;2022-09-13T17:36:42;98393.39;;;29.59;37.74
34197;BME280;36594;45.192;5.722;2022-09-13T17:39:30;98394.61;;;29.53;37.79
34197;BME280;36594;45.192;5.722;2022-09-13T17:42:19;98399.63;;;29.51;37.78
34197;BME280;36594;45.192;5.722;2022-09-13T17:45:08;98410.75;;;29.48;37.69